Terminal Aerodrome Forecast
Issued by NWS Louisville, KY

Home | Current Version | Previous Version | Text Only | Print | Product List | Glossary On
Versions: 1 2 3 4 5 6 7 8 9 10 11 12
000
FTUS43 KLMK 071100
TAFLEX
TAF
KLEX 071120Z 0712/0812 19007KT P6SM FEW035 SCT250
     FM071500 22014G22KT P6SM VCSH BKN040 BKN200
     FM072200 23013G20KT 6SM -SHRA VCTS BKN040CB
      TEMPO 0722/0802 3SM -TSRA BKN025CB
     FM080200 23007KT P6SM VCSH BKN040=

USA.gov is the U.S. government's official web portal to all federal, state and local government web resources and services.